createdAt,value
2022-09-02T00:00:38.234Z,12.48
2022-09-02T00:01:28.242Z,12.46
2022-09-02T00:02:18.275Z,12.44
2022-09-02T00:03:08.311Z,12.43
2022-09-02T00:03:58.202Z,12.43
2022-09-02T00:04:48.194Z,12.41
2022-09-02T00:05:38.193Z,12.43
2022-09-02T00:06:28.194Z,12.41
2022-09-02T00:07:18.187Z,12.40
2022-09-02T00:08:08.169Z,12.40
2022-09-02T00:08:58.142Z,12.40
2022-09-02T00:09:48.142Z,12.38
2022-09-02T00:10:38.131Z,12.40
2022-09-02T00:11:28.529Z,12.38
2022-09-02T00:12:18.113Z,12.36
2022-09-02T00:13:08.092Z,12.33
2022-09-02T00:13:58.092Z,12.33
2022-09-02T00:14:48.083Z,12.30
2022-09-02T00:15:38.071Z,12.29
2022-09-02T00:16:28.144Z,12.25
2022-09-02T00:17:18.077Z,12.23
2022-09-02T00:18:08.470Z,12.23
2022-09-02T00:18:59.366Z,12.21
2022-09-02T00:19:48.024Z,12.22
2022-09-02T00:20:38.022Z,12.21
2022-09-02T00:21:28.030Z,12.18
2022-09-02T00:22:17.999Z,12.15
2022-09-02T00:23:08.005Z,12.15
2022-09-02T00:23:57.973Z,12.13
2022-09-02T00:24:47.960Z,12.12
2022-09-02T00:25:37.950Z,12.13
2022-09-02T00:26:27.971Z,12.12
2022-09-02T00:27:17.928Z,12.11
2022-09-02T00:28:07.933Z,12.12
2022-09-02T00:28:57.910Z,12.13
2022-09-02T00:29:47.904Z,12.12
2022-09-02T00:30:37.903Z,12.13
2022-09-02T00:31:27.922Z,12.12
2022-09-02T00:32:17.891Z,12.11
2022-09-02T00:33:07.879Z,12.12
2022-09-02T00:33:57.859Z,12.11
2022-09-02T00:34:47.867Z,12.13
2022-09-02T00:35:37.839Z,12.08
2022-09-02T00:36:27.839Z,12.05
2022-09-02T00:37:17.829Z,12.03
2022-09-02T00:38:07.821Z,12.03
2022-09-02T00:38:57.806Z,12.04
2022-09-02T00:39:47.789Z,12.04
2022-09-02T00:40:37.839Z,12.03
2022-09-02T00:41:27.802Z,12.03
2022-09-02T00:42:17.782Z,12.03
2022-09-02T00:43:07.768Z,12.03
2022-09-02T00:43:57.738Z,12.01
2022-09-02T00:44:47.730Z,12.01
2022-09-02T00:45:37.783Z,12.01
2022-09-02T00:46:27.731Z,12.01
2022-09-02T00:47:17.720Z,12.01
2022-09-02T00:48:07.710Z,12.01
2022-09-02T00:48:57.688Z,12.00
2022-09-02T00:49:47.692Z,12.01
2022-09-02T00:50:37.677Z,12.03
2022-09-02T00:51:27.686Z,12.00
2022-09-02T00:52:17.649Z,11.98
2022-09-02T00:53:07.639Z,11.98
2022-09-02T00:53:57.637Z,12.00
2022-09-02T00:54:47.626Z,11.98
2022-09-02T00:55:37.608Z,11.97
2022-09-02T00:56:27.627Z,11.97
2022-09-02T00:57:17.611Z,11.94
2022-09-02T00:58:09.482Z,11.94
2022-09-02T00:58:57.568Z,11.88
2022-09-02T00:59:47.588Z,11.87
2022-09-02T01:00:37.592Z,11.82
2022-09-02T01:01:27.699Z,11.77
2022-09-02T01:02:17.676Z,11.75
2022-09-02T01:03:07.534Z,11.74
2022-09-02T01:03:57.526Z,11.70
2022-09-02T01:04:47.527Z,11.70
2022-09-02T01:05:40.624Z,11.70
2022-09-02T01:06:28.506Z,11.74
2022-09-02T01:07:17.475Z,11.70
2022-09-02T01:09:10.478Z,11.69
2022-09-02T01:09:16.594Z,11.64
2022-09-02T01:10:05.136Z,11.66
2022-09-02T01:10:55.118Z,11.63
2022-09-02T01:11:45.105Z,11.60
2022-09-02T01:12:35.093Z,11.56
2022-09-02T01:13:25.076Z,11.57
2022-09-02T01:14:15.084Z,11.56
2022-09-02T01:15:05.067Z,11.57
2022-09-02T01:15:55.107Z,11.56
2022-09-02T01:16:45.076Z,11.57
2022-09-02T01:17:35.026Z,11.60
2022-09-02T01:18:25.034Z,11.59
2022-09-02T01:19:15.016Z,11.60
2022-09-02T01:20:04.995Z,11.60
2022-09-02T01:20:54.998Z,11.60
2022-09-02T01:21:44.992Z,11.60
2022-09-02T01:22:34.961Z,11.60
2022-09-02T01:23:25.256Z,11.63
2022-09-02T01:24:14.954Z,11.62
2022-09-02T01:25:04.943Z,11.63
2022-09-02T01:25:54.952Z,11.60
2022-09-02T01:26:44.935Z,11.62
2022-09-02T01:27:34.905Z,11.62
2022-09-02T01:28:24.931Z,11.60
2022-09-02T01:29:14.887Z,11.62
2022-09-02T01:30:04.900Z,11.60
2022-09-02T01:30:54.892Z,11.62
2022-09-02T01:31:44.922Z,11.62
2022-09-02T01:32:34.890Z,11.59
2022-09-02T01:33:25.363Z,11.56
2022-09-02T01:34:14.842Z,11.49
2022-09-02T01:35:04.851Z,11.46
2022-09-02T01:35:54.844Z,11.42
2022-09-02T01:36:44.812Z,11.41
2022-09-02T01:37:34.813Z,11.39
2022-09-02T01:38:24.810Z,11.38
2022-09-02T01:39:14.774Z,11.36
2022-09-02T01:40:04.817Z,11.36
2022-09-02T01:40:54.777Z,11.31
2022-09-02T01:41:44.763Z,11.30
2022-09-02T01:42:34.754Z,11.27
2022-09-02T01:43:24.738Z,11.27
2022-09-02T01:44:14.734Z,11.24
2022-09-02T01:45:04.712Z,11.23
2022-09-02T01:45:54.712Z,11.27
2022-09-02T01:46:44.761Z,11.31
2022-09-02T01:47:34.692Z,11.36
2022-09-02T01:48:24.691Z,11.39
2022-09-02T01:49:14.662Z,11.41
2022-09-02T01:50:04.659Z,11.39
2022-09-02T01:50:54.673Z,11.35
2022-09-02T01:51:44.640Z,11.35
2022-09-02T01:52:34.622Z,11.35
2022-09-02T01:53:24.632Z,11.35
2022-09-02T01:54:14.610Z,11.33
2022-09-02T01:55:04.602Z,11.35
2022-09-02T01:55:54.629Z,11.35
2022-09-02T01:56:44.581Z,11.35
2022-09-02T01:57:34.571Z,11.35
2022-09-02T01:58:24.563Z,11.31
2022-09-02T01:59:14.563Z,11.31
2022-09-02T02:00:04.560Z,11.31
2022-09-02T02:00:54.668Z,11.30
2022-09-02T02:01:44.610Z,11.28
2022-09-02T02:02:34.523Z,11.28
2022-09-02T02:03:24.524Z,11.24
2022-09-02T02:04:14.504Z,11.23
2022-09-02T02:05:04.500Z,11.21
2022-09-02T02:05:54.500Z,11.24
2022-09-02T02:06:44.473Z,11.27
2022-09-02T02:07:34.476Z,11.26
2022-09-02T02:08:24.465Z,11.27
2022-09-02T02:09:14.440Z,11.27
2022-09-02T02:10:04.429Z,11.27
2022-09-02T02:10:54.450Z,11.26
2022-09-02T02:11:44.426Z,11.27
2022-09-02T02:12:34.402Z,11.26
2022-09-02T02:13:24.389Z,11.21
2022-09-02T02:14:14.400Z,11.19
2022-09-02T02:15:04.380Z,11.16
2022-09-02T02:15:54.431Z,11.16
2022-09-02T02:16:44.360Z,11.16
2022-09-02T02:17:34.359Z,11.16
2022-09-02T02:18:24.339Z,11.16
2022-09-02T02:19:14.330Z,11.13
2022-09-02T02:20:04.329Z,11.13
2022-09-02T02:20:54.339Z,11.12
2022-09-02T02:21:44.333Z,11.12
2022-09-02T02:22:34.311Z,11.12
2022-09-02T02:23:24.298Z,11.12
2022-09-02T02:24:14.282Z,11.16
2022-09-02T02:25:04.276Z,11.16
2022-09-02T02:25:54.279Z,11.13
2022-09-02T02:26:44.246Z,11.12
2022-09-02T02:27:34.242Z,11.12
2022-09-02T02:28:24.226Z,11.12
2022-09-02T02:29:14.236Z,11.11
2022-09-02T02:30:04.220Z,11.11
2022-09-02T02:30:54.260Z,11.09
2022-09-02T02:31:44.271Z,11.12
2022-09-02T02:32:34.191Z,11.11
2022-09-02T02:33:26.179Z,11.11
2022-09-02T02:34:15.184Z,11.12
2022-09-02T02:35:04.156Z,11.12
2022-09-02T02:35:55.573Z,11.11
2022-09-02T02:36:44.150Z,11.11
2022-09-02T02:37:34.139Z,11.09
2022-09-02T02:38:24.118Z,11.11
2022-09-02T02:39:14.107Z,11.08
2022-09-02T02:40:04.189Z,11.06
2022-09-02T02:40:54.179Z,11.01
2022-09-02T02:41:44.636Z,10.98
2022-09-02T02:42:34.068Z,10.95
2022-09-02T02:43:24.048Z,10.95
2022-09-02T02:44:14.065Z,10.94
2022-09-02T02:45:04.029Z,10.94
2022-09-02T02:45:54.059Z,10.87
2022-09-02T02:46:44.078Z,10.83
2022-09-02T02:47:34.068Z,10.80
2022-09-02T02:48:24.001Z,10.83
2022-09-02T02:49:14.006Z,10.87
2022-09-02T02:50:03.986Z,10.90
2022-09-02T02:50:53.996Z,10.93
2022-09-02T02:51:43.962Z,10.93
2022-09-02T02:52:33.958Z,10.93
2022-09-02T02:53:23.946Z,10.93
2022-09-02T02:54:13.938Z,10.91
2022-09-02T02:55:03.937Z,10.90
2022-09-02T02:55:53.942Z,10.90
2022-09-02T02:56:43.907Z,10.88
2022-09-02T02:57:33.894Z,10.87
2022-09-02T02:58:23.886Z,10.87
2022-09-02T02:59:13.885Z,10.87
2022-09-02T03:00:03.894Z,10.86
2022-09-02T03:00:53.888Z,10.86
2022-09-02T03:01:43.997Z,10.86
2022-09-02T03:02:33.950Z,10.81
2022-09-02T03:03:23.894Z,10.80
2022-09-02T03:04:13.853Z,10.76
2022-09-02T03:05:03.823Z,10.70
2022-09-02T03:05:53.813Z,10.69
2022-09-02T03:06:43.824Z,10.70
2022-09-02T03:07:33.794Z,10.70
2022-09-02T03:08:23.822Z,10.73
2022-09-02T03:09:13.777Z,10.72
2022-09-02T03:10:03.754Z,10.76
2022-09-02T03:10:53.784Z,10.78
2022-09-02T03:11:43.742Z,10.81
2022-09-02T03:12:33.772Z,10.83
2022-09-02T03:13:23.734Z,10.81
2022-09-02T03:14:13.722Z,10.83
2022-09-02T03:15:03.701Z,10.83
2022-09-02T03:15:53.770Z,10.78
2022-09-02T03:16:43.678Z,10.76
2022-09-02T03:17:33.675Z,10.73
2022-09-02T03:18:23.667Z,10.69
2022-09-02T03:19:13.662Z,10.60
2022-09-02T03:20:03.661Z,10.58
2022-09-02T03:20:53.652Z,10.57
2022-09-02T03:21:43.625Z,10.58
2022-09-02T03:22:33.632Z,10.60
2022-09-02T03:23:23.697Z,10.60
2022-09-02T03:24:13.618Z,10.58
2022-09-02T03:25:03.610Z,10.62
2022-09-02T03:25:53.582Z,10.66
2022-09-02T03:26:43.583Z,10.65
2022-09-02T03:27:33.566Z,10.65
2022-09-02T03:28:23.562Z,10.66
2022-09-02T03:29:13.541Z,10.65
2022-09-02T03:30:03.540Z,10.66
2022-09-02T03:30:53.572Z,10.65
2022-09-02T03:31:43.572Z,10.65
2022-09-02T03:32:33.520Z,10.65
2022-09-02T03:33:23.640Z,10.65
2022-09-02T03:34:13.517Z,10.65
2022-09-02T03:35:03.491Z,10.63
2022-09-02T03:35:53.501Z,10.65
2022-09-02T03:36:43.480Z,10.65
2022-09-02T03:37:33.451Z,10.65
2022-09-02T03:38:23.430Z,10.65
2022-09-02T03:39:13.442Z,10.66
2022-09-02T03:40:03.443Z,10.63
2022-09-02T03:40:53.516Z,10.62
2022-09-02T03:41:43.400Z,10.58
2022-09-02T03:42:33.404Z,10.57
2022-09-02T03:43:23.493Z,10.57
2022-09-02T03:44:13.396Z,10.55
2022-09-02T03:45:03.372Z,10.52
2022-09-02T03:45:53.427Z,10.52
2022-09-02T03:46:43.369Z,10.51
2022-09-02T03:47:33.350Z,10.47
2022-09-02T03:48:23.330Z,10.44
2022-09-02T03:49:13.327Z,10.46
2022-09-02T03:50:03.300Z,10.43
2022-09-02T03:50:53.341Z,10.39
2022-09-02T03:51:43.289Z,10.38
2022-09-02T03:52:33.300Z,10.38
2022-09-02T03:53:23.628Z,10.38
2022-09-02T03:54:13.271Z,10.39
2022-09-02T03:55:03.246Z,10.39
2022-09-02T03:55:53.267Z,10.38
2022-09-02T03:56:43.253Z,10.36
2022-09-02T03:57:33.232Z,10.35
2022-09-02T03:58:23.216Z,10.35
2022-09-02T03:59:13.229Z,10.34
2022-09-02T04:00:03.189Z,10.35
2022-09-02T04:00:53.211Z,10.35
2022-09-02T04:01:43.208Z,10.36
2022-09-02T04:02:33.263Z,10.36
2022-09-02T04:03:23.390Z,10.39
2022-09-02T04:04:13.147Z,10.38
2022-09-02T04:05:03.138Z,10.38
2022-09-02T04:05:53.140Z,10.35
2022-09-02T04:06:43.147Z,10.35
2022-09-02T04:07:33.120Z,10.36
2022-09-02T04:08:23.116Z,10.36
2022-09-02T04:09:13.088Z,10.36
2022-09-02T04:10:03.099Z,10.36
2022-09-02T04:10:53.097Z,10.36
2022-09-02T04:11:43.079Z,10.34
2022-09-02T04:12:33.077Z,10.31
2022-09-02T04:13:23.217Z,10.29
2022-09-02T04:14:13.036Z,10.25
2022-09-02T04:15:03.032Z,10.26
2022-09-02T04:15:53.101Z,10.28
2022-09-02T04:16:43.028Z,10.26
2022-09-02T04:17:32.999Z,10.28
2022-09-02T04:18:22.986Z,10.26
2022-09-02T04:19:12.995Z,10.28
2022-09-02T04:20:02.990Z,10.28
2022-09-02T04:20:53.007Z,10.29
2022-09-02T04:21:42.958Z,10.28
2022-09-02T04:22:32.945Z,10.28
2022-09-02T04:23:23.084Z,10.28
2022-09-02T04:24:12.947Z,10.25
2022-09-02T04:25:02.912Z,10.26
2022-09-02T04:25:52.926Z,10.26
2022-09-02T04:26:45.168Z,10.25
2022-09-02T04:27:32.892Z,10.22
2022-09-02T04:28:22.882Z,10.24
2022-09-02T04:29:12.887Z,10.24
2022-09-02T04:30:02.878Z,10.20
2022-09-02T04:30:52.922Z,10.22
2022-09-02T04:31:42.939Z,10.22
2022-09-02T04:32:36.998Z,10.20
2022-09-02T04:33:23.816Z,10.18
2022-09-02T04:34:12.816Z,10.16
2022-09-02T04:35:02.814Z,10.13
2022-09-02T04:35:52.794Z,10.11
2022-09-02T04:36:42.805Z,10.13
2022-09-02T04:37:32.794Z,10.13
2022-09-02T04:38:22.783Z,10.11
2022-09-02T04:39:12.760Z,10.11
2022-09-02T04:40:02.743Z,10.10
2022-09-02T04:40:52.842Z,10.10
2022-09-02T04:41:42.733Z,10.10
2022-09-02T04:42:32.737Z,10.11
2022-09-02T04:43:22.814Z,10.13
2022-09-02T04:44:12.701Z,10.09
2022-09-02T04:45:02.703Z,10.07
2022-09-02T04:45:52.785Z,10.09
2022-09-02T04:46:42.736Z,10.06
2022-09-02T04:47:32.685Z,10.04
2022-09-02T04:48:22.664Z,10.04
2022-09-02T04:49:12.659Z,10.01
2022-09-02T04:50:02.649Z,9.98
2022-09-02T04:50:52.652Z,9.98
2022-09-02T04:51:42.614Z,9.95
2022-09-02T04:52:32.620Z,9.93
2022-09-02T04:53:22.699Z,9.92
2022-09-02T04:54:12.596Z,9.89
2022-09-02T04:55:02.580Z,9.89
2022-09-02T04:55:57.835Z,9.91
2022-09-02T04:56:43.572Z,9.91
2022-09-02T04:57:32.551Z,9.89
2022-09-02T04:58:22.558Z,9.91
2022-09-02T04:59:12.532Z,9.89
2022-09-02T05:00:02.529Z,9.92
2022-09-02T05:00:52.545Z,9.95
2022-09-02T05:01:42.611Z,9.95
2022-09-02T05:02:32.556Z,9.93
2022-09-02T05:03:22.559Z,9.91
2022-09-02T05:04:12.495Z,9.89
2022-09-02T05:05:02.483Z,9.89
2022-09-02T05:05:52.480Z,9.91
2022-09-02T05:06:44.517Z,9.93
2022-09-02T05:07:32.470Z,9.92
2022-09-02T05:08:22.442Z,9.93
2022-09-02T05:09:12.425Z,9.93
2022-09-02T05:10:02.410Z,9.95
2022-09-02T05:10:52.441Z,9.96
2022-09-02T05:11:42.388Z,9.98
2022-09-02T05:12:32.403Z,9.96
2022-09-02T05:13:22.457Z,9.96
2022-09-02T05:14:12.372Z,9.96
2022-09-02T05:15:02.350Z,9.95
2022-09-02T05:15:52.408Z,9.96
2022-09-02T05:16:42.361Z,9.96
2022-09-02T05:17:32.341Z,9.98
2022-09-02T05:18:22.359Z,9.98
2022-09-02T05:19:12.330Z,9.96
2022-09-02T05:20:02.296Z,9.96
2022-09-02T05:20:52.330Z,9.93
2022-09-02T05:21:42.286Z,9.92
2022-09-02T05:22:32.289Z,9.91
2022-09-02T05:23:22.353Z,9.91
2022-09-02T05:24:12.258Z,9.89
2022-09-02T05:25:02.248Z,9.88
2022-09-02T05:25:52.267Z,9.88
2022-09-02T05:26:42.219Z,9.88
2022-09-02T05:27:32.237Z,9.86
2022-09-02T05:28:22.248Z,9.88
2022-09-02T05:29:12.205Z,9.86
2022-09-02T05:30:02.198Z,9.86
2022-09-02T05:30:52.244Z,9.88
2022-09-02T05:31:42.228Z,9.92
2022-09-02T05:32:36.939Z,9.91
2022-09-02T05:33:23.161Z,9.93
2022-09-02T05:34:12.187Z,9.95
2022-09-02T05:35:02.144Z,9.96
2022-09-02T05:35:52.139Z,9.96
2022-09-02T05:36:42.130Z,9.98
2022-09-02T05:37:32.116Z,9.96
2022-09-02T05:38:22.121Z,9.98
2022-09-02T05:39:12.097Z,9.98
2022-09-02T05:40:02.080Z,9.96
2022-09-02T05:40:52.105Z,9.99
2022-09-02T05:41:42.086Z,9.99
2022-09-02T05:42:32.047Z,9.99
2022-09-02T05:43:22.133Z,9.98
2022-09-02T05:44:12.029Z,9.96
2022-09-02T05:45:02.036Z,9.96
2022-09-02T05:45:52.059Z,9.96
2022-09-02T05:46:45.532Z,9.98
2022-09-02T05:47:32.993Z,9.99
2022-09-02T05:48:21.987Z,10.01
2022-09-02T05:49:11.988Z,10.01
2022-09-02T05:50:01.976Z,10.02
2022-09-02T05:50:54.918Z,10.02
2022-09-02T05:51:42.970Z,10.04
2022-09-02T05:52:31.943Z,10.06
2022-09-02T05:53:21.926Z,10.07
2022-09-02T05:54:11.935Z,10.09
2022-09-02T05:55:01.910Z,10.09
2022-09-02T05:55:51.907Z,10.11
2022-09-02T05:56:45.128Z,10.13
2022-09-02T05:57:31.896Z,10.16
2022-09-02T05:58:21.884Z,10.16
2022-09-02T05:59:11.854Z,10.17
2022-09-02T06:00:01.851Z,10.20
2022-09-02T06:00:51.863Z,10.20
2022-09-02T06:01:41.886Z,10.24
2022-09-02T06:02:31.909Z,10.25
2022-09-02T06:03:21.856Z,10.25
2022-09-02T06:04:11.815Z,10.25
2022-09-02T06:05:01.798Z,10.28
2022-09-02T06:05:51.782Z,10.28
2022-09-02T06:06:41.805Z,10.29
2022-09-02T06:07:31.819Z,10.29
2022-09-02T06:08:21.776Z,10.29
2022-09-02T06:09:11.753Z,10.31
2022-09-02T06:10:01.755Z,10.29
2022-09-02T06:10:51.732Z,10.29
2022-09-02T06:11:41.743Z,10.29
2022-09-02T06:12:31.710Z,10.29
2022-09-02T06:13:21.731Z,10.29
2022-09-02T06:14:11.703Z,10.31
2022-09-02T06:15:01.682Z,10.31
2022-09-02T06:15:51.759Z,10.31
2022-09-02T06:16:41.681Z,10.29
2022-09-02T06:17:31.684Z,10.26
2022-09-02T06:18:21.664Z,10.25
2022-09-02T06:19:14.342Z,10.25
2022-09-02T06:20:02.623Z,10.25
2022-09-02T06:20:51.631Z,10.29
2022-09-02T06:21:41.634Z,10.31
2022-09-02T06:22:31.615Z,10.31
2022-09-02T06:23:21.617Z,10.32
2022-09-02T06:24:11.576Z,10.32
2022-09-02T06:25:01.588Z,10.36
2022-09-02T06:25:51.562Z,10.38
2022-09-02T06:26:41.579Z,10.36
2022-09-02T06:27:31.561Z,10.38
2022-09-02T06:28:21.560Z,10.39
2022-09-02T06:29:11.526Z,10.39
2022-09-02T06:30:01.513Z,10.38
2022-09-02T06:30:51.537Z,10.38
2022-09-02T06:31:41.511Z,10.38
2022-09-02T06:32:31.491Z,10.39
2022-09-02T06:33:21.529Z,10.36
2022-09-02T06:34:11.494Z,10.36
2022-09-02T06:35:01.471Z,10.36
2022-09-02T06:35:51.450Z,10.36
2022-09-02T06:36:41.471Z,10.35
2022-09-02T06:37:31.438Z,10.35
2022-09-02T06:38:21.433Z,10.36
2022-09-02T06:39:11.421Z,10.38
2022-09-02T06:40:01.421Z,10.44
2022-09-02T06:40:51.476Z,10.52
2022-09-02T06:41:41.391Z,10.52
2022-09-02T06:42:31.372Z,10.55
2022-09-02T06:43:21.373Z,10.58
2022-09-02T06:44:11.382Z,10.63
2022-09-02T06:45:01.361Z,10.68
2022-09-02T06:45:51.391Z,10.70
2022-09-02T06:46:41.361Z,10.75
2022-09-02T06:47:31.321Z,10.80
2022-09-02T06:48:21.330Z,10.84
2022-09-02T06:49:11.290Z,10.87
2022-09-02T06:50:01.324Z,10.91
2022-09-02T06:50:51.289Z,10.93
2022-09-02T06:51:41.288Z,10.98
2022-09-02T06:52:31.263Z,11.01
2022-09-02T06:53:21.259Z,11.02
2022-09-02T06:54:11.255Z,11.03
2022-09-02T06:55:01.247Z,11.05
2022-09-02T06:55:51.230Z,11.03
2022-09-02T06:56:43.831Z,11.02
2022-09-02T06:57:33.982Z,11.05
2022-09-02T06:58:21.198Z,11.05
2022-09-02T06:59:11.198Z,11.06
2022-09-02T07:00:02.323Z,11.11
2022-09-02T07:00:51.202Z,11.12
2022-09-02T07:01:41.360Z,11.13
2022-09-02T07:02:31.155Z,11.17
2022-09-02T07:03:21.137Z,11.20
2022-09-02T07:04:11.144Z,11.23
2022-09-02T07:05:01.117Z,11.27
2022-09-02T07:05:51.125Z,11.31
2022-09-02T07:06:41.131Z,11.35
2022-09-02T07:07:31.088Z,11.38
2022-09-02T07:08:21.117Z,11.41
2022-09-02T07:09:11.109Z,11.45
2022-09-02T07:10:01.084Z,11.48
2022-09-02T07:10:51.046Z,11.51
2022-09-02T07:11:41.067Z,11.57
2022-09-02T07:12:31.029Z,11.64
2022-09-02T07:13:21.045Z,11.67
2022-09-02T07:14:11.027Z,11.72
2022-09-02T07:15:01.028Z,11.75
2022-09-02T07:15:51.006Z,11.75
2022-09-02T07:16:41.064Z,11.77
2022-09-02T07:17:30.989Z,11.82
2022-09-02T07:18:20.969Z,11.87
2022-09-02T07:19:14.236Z,11.93
2022-09-02T07:20:01.994Z,11.98
2022-09-02T07:20:50.938Z,12.04
2022-09-02T07:21:40.988Z,12.07
2022-09-02T07:22:32.877Z,12.11
2022-09-02T07:23:20.937Z,12.16
2022-09-02T07:24:10.943Z,12.19
2022-09-02T07:25:00.954Z,12.25
2022-09-02T07:25:50.926Z,12.31
2022-09-02T07:26:40.895Z,12.40
2022-09-02T07:27:30.864Z,12.44
2022-09-02T07:28:20.875Z,12.49
2022-09-02T07:29:10.846Z,12.55
2022-09-02T07:30:00.853Z,12.59
2022-09-02T07:30:50.907Z,12.63
2022-09-02T07:31:40.855Z,12.69
2022-09-02T07:32:30.825Z,12.70
2022-09-02T07:33:20.801Z,12.73
2022-09-02T07:34:10.794Z,12.76
2022-09-02T07:35:00.843Z,12.79
2022-09-02T07:35:50.764Z,12.79
2022-09-02T07:36:40.765Z,12.81
2022-09-02T07:37:30.774Z,12.87
2022-09-02T07:38:20.762Z,12.91
2022-09-02T07:39:10.734Z,12.96
2022-09-02T07:40:00.733Z,13.03
2022-09-02T07:40:50.710Z,13.07
2022-09-02T07:41:41.709Z,13.14
2022-09-02T07:42:30.716Z,13.22
2022-09-02T07:43:20.747Z,13.27
2022-09-02T07:44:10.673Z,13.31
2022-09-02T07:45:00.662Z,13.32
2022-09-02T07:45:50.705Z,13.39
2022-09-02T07:46:40.693Z,13.43
2022-09-02T07:47:30.657Z,13.48
2022-09-02T07:48:20.634Z,13.57
2022-09-02T07:49:10.631Z,13.62
2022-09-02T07:50:51.606Z,13.71
2022-09-02T07:51:40.600Z,13.76
2022-09-02T07:52:30.602Z,13.86
2022-09-02T07:53:20.572Z,13.87
2022-09-02T07:54:10.570Z,13.90
2022-09-02T07:55:00.561Z,13.90
2022-09-02T07:55:50.539Z,13.94
2022-09-02T07:56:40.572Z,13.94
2022-09-02T07:57:30.554Z,13.96
2022-09-02T07:58:20.521Z,14.02
2022-09-02T07:59:10.507Z,14.06
2022-09-02T08:00:00.511Z,14.13
2022-09-02T08:00:50.497Z,14.19
2022-09-02T08:02:30.537Z,14.27
2022-09-02T08:03:20.546Z,14.27
2022-09-02T08:04:10.465Z,14.30
2022-09-02T08:05:00.443Z,14.34
2022-09-02T08:05:50.476Z,14.38
2022-09-02T08:06:40.435Z,14.44
2022-09-02T08:07:30.432Z,14.54
2022-09-02T08:08:20.480Z,14.61
2022-09-02T08:09:10.419Z,14.69
2022-09-02T08:10:00.384Z,14.72
2022-09-02T08:10:50.458Z,14.78
2022-09-02T08:11:40.407Z,14.79
2022-09-02T08:12:30.397Z,14.83
2022-09-02T08:13:20.390Z,14.83
2022-09-02T08:14:10.332Z,14.85
2022-09-02T08:15:00.347Z,14.87
2022-09-02T08:15:50.772Z,14.95
2022-09-02T08:16:40.377Z,15.00
2022-09-02T08:17:30.322Z,15.04
2022-09-02T08:18:21.118Z,15.15
2022-09-02T08:19:10.301Z,15.27
2022-09-02T08:20:00.283Z,15.37
2022-09-02T08:20:50.270Z,15.44
2022-09-02T08:21:40.250Z,15.51
2022-09-02T08:22:30.266Z,15.59
2022-09-02T08:23:35.976Z,15.66
2022-09-02T08:24:11.251Z,15.73
2022-09-02T08:25:00.231Z,15.78
2022-09-02T08:25:50.203Z,15.86
2022-09-02T08:26:40.199Z,15.98
2022-09-02T08:27:30.192Z,16.07
2022-09-02T08:28:20.210Z,16.11
2022-09-02T08:29:10.177Z,16.14
2022-09-02T08:30:00.182Z,16.16
2022-09-02T08:30:50.150Z,16.18
2022-09-02T08:31:40.211Z,16.32
2022-09-02T08:32:30.171Z,16.42
2022-09-02T08:33:20.168Z,16.44
2022-09-02T08:34:10.111Z,16.42
2022-09-02T08:35:00.132Z,16.45
2022-09-02T08:35:50.111Z,16.51
2022-09-02T08:36:40.106Z,16.52
2022-09-02T08:37:31.091Z,16.57
2022-09-02T08:38:20.077Z,16.63
2022-09-02T08:39:10.084Z,16.67
2022-09-02T08:40:00.067Z,16.69
2022-09-02T08:40:50.102Z,16.70
2022-09-02T08:41:40.047Z,16.72
2022-09-02T08:42:30.040Z,16.72
2022-09-02T08:43:20.061Z,16.72
2022-09-02T08:44:10.001Z,16.75
2022-09-02T08:45:00.070Z,16.80
2022-09-02T08:45:50.042Z,16.82
2022-09-02T08:46:39.990Z,16.82
2022-09-02T08:47:29.979Z,16.85
2022-09-02T08:48:19.973Z,16.92
2022-09-02T08:49:09.975Z,16.98
2022-09-02T08:49:59.940Z,17.03
2022-09-02T08:50:49.957Z,17.12
2022-09-02T08:51:39.949Z,17.17
2022-09-02T08:52:29.921Z,17.27
2022-09-02T08:53:19.924Z,17.38
2022-09-02T08:54:09.966Z,17.43
2022-09-02T08:54:59.902Z,17.51
2022-09-02T08:55:49.890Z,17.54
2022-09-02T08:56:39.887Z,17.55
2022-09-02T08:57:29.867Z,17.55
2022-09-02T08:58:19.885Z,17.57
2022-09-02T08:59:09.838Z,17.60
2022-09-02T08:59:59.870Z,17.63
2022-09-02T09:00:49.849Z,17.62
2022-09-02T09:01:39.838Z,17.62
2022-09-02T09:02:29.911Z,17.63
2022-09-02T09:03:19.819Z,17.68
2022-09-02T09:04:09.861Z,17.71
2022-09-02T09:04:59.778Z,17.74
2022-09-02T09:05:49.798Z,17.77
2022-09-02T09:06:39.818Z,17.86
2022-09-02T09:07:29.863Z,17.91
2022-09-02T09:08:19.787Z,17.94
2022-09-02T09:09:09.752Z,17.96
2022-09-02T09:09:59.723Z,18.04
2022-09-02T09:10:49.748Z,18.04
2022-09-02T09:11:39.736Z,18.11
2022-09-02T09:12:29.706Z,18.20
2022-09-02T09:13:19.719Z,18.23
2022-09-02T09:14:09.701Z,18.29
2022-09-02T09:14:59.703Z,18.34
2022-09-02T09:15:49.676Z,18.35
2022-09-02T09:16:39.735Z,18.35
2022-09-02T09:17:29.685Z,18.32
2022-09-02T09:18:19.682Z,18.31
2022-09-02T09:19:09.631Z,18.38
2022-09-02T09:19:59.685Z,18.41
2022-09-02T09:20:49.632Z,18.49
2022-09-02T09:21:39.635Z,18.53
2022-09-02T09:22:29.621Z,18.57
2022-09-02T09:23:21.992Z,18.59
2022-09-02T09:24:09.607Z,18.57
2022-09-02T09:24:59.585Z,18.59
2022-09-02T09:25:49.570Z,18.60
2022-09-02T09:26:39.559Z,18.65
2022-09-02T09:27:29.601Z,18.71
2022-09-02T09:28:19.563Z,18.76
2022-09-02T09:29:09.540Z,18.82
2022-09-02T09:29:59.520Z,18.82
2022-09-02T09:30:49.523Z,18.79
2022-09-02T09:31:39.579Z,18.83
2022-09-02T09:32:29.551Z,18.82
2022-09-02T09:33:19.500Z,18.83
2022-09-02T09:34:09.501Z,18.82
2022-09-02T09:34:59.472Z,18.79
2022-09-02T09:35:49.483Z,18.79
2022-09-02T09:36:39.467Z,18.82
2022-09-02T09:37:33.888Z,18.84
2022-09-02T09:38:20.450Z,18.86
2022-09-02T09:39:09.459Z,18.89
2022-09-02T09:39:59.436Z,18.90
2022-09-02T09:40:49.454Z,18.93
2022-09-02T09:41:39.411Z,18.97
2022-09-02T09:42:29.432Z,19.12
2022-09-02T09:43:19.400Z,19.17
2022-09-02T09:44:09.390Z,19.21
2022-09-02T09:44:59.387Z,19.21
2022-09-02T09:45:49.479Z,19.23
2022-09-02T09:46:39.368Z,19.21
2022-09-02T09:47:29.350Z,19.20
2022-09-02T09:48:19.351Z,19.21
2022-09-02T09:49:09.367Z,19.25
2022-09-02T09:49:59.359Z,19.31
2022-09-02T09:50:49.331Z,19.32
2022-09-02T09:51:49.891Z,19.34
2022-09-02T09:52:30.322Z,19.32
2022-09-02T09:53:19.310Z,19.31
2022-09-02T09:54:09.291Z,19.35
2022-09-02T09:54:59.270Z,19.40
2022-09-02T09:55:49.316Z,19.47
2022-09-02T09:56:39.271Z,19.52
2022-09-02T09:57:35.569Z,19.58
2022-09-02T09:58:20.241Z,19.61
2022-09-02T09:59:09.230Z,19.64
2022-09-02T09:59:59.230Z,19.70
2022-09-02T10:00:49.288Z,19.71
2022-09-02T10:01:39.219Z,19.75
2022-09-02T10:02:33.167Z,19.78
2022-09-02T10:03:20.252Z,19.82
2022-09-02T10:04:32.183Z,19.82
2022-09-02T10:05:00.181Z,19.86
2022-09-02T10:05:49.160Z,19.90
2022-09-02T10:06:39.159Z,19.94
2022-09-02T10:07:29.199Z,20.01
2022-09-02T10:08:19.180Z,20.02
2022-09-02T10:09:09.136Z,20.05
2022-09-02T10:09:59.121Z,20.07
2022-09-02T10:10:49.109Z,19.98
2022-09-02T10:11:39.108Z,19.89
2022-09-02T10:12:29.111Z,19.83
2022-09-02T10:14:09.080Z,19.86
2022-09-02T10:14:59.070Z,19.95
2022-09-02T10:15:49.059Z,20.01
2022-09-02T10:16:39.126Z,20.04
2022-09-02T10:17:29.071Z,20.08
2022-09-02T10:18:19.028Z,20.05
2022-09-02T10:19:09.033Z,20.00
2022-09-02T10:19:59.029Z,19.92
2022-09-02T10:21:04.925Z,19.94
2022-09-02T10:21:44.881Z,20.00
2022-09-02T10:22:38.467Z,20.07
2022-09-02T10:23:19.990Z,20.15
2022-09-02T10:24:09.009Z,20.20
2022-09-02T10:24:58.961Z,20.25
2022-09-02T10:25:48.969Z,20.27
2022-09-02T10:26:38.949Z,20.35
2022-09-02T10:27:28.984Z,20.41
2022-09-02T10:28:19.023Z,20.48
2022-09-02T10:29:08.922Z,20.53
2022-09-02T10:29:58.906Z,20.60
2022-09-02T10:30:48.892Z,20.68
2022-09-02T10:31:38.967Z,20.72
2022-09-02T10:32:28.890Z,20.76
2022-09-02T10:33:18.859Z,20.68
2022-09-02T10:34:08.879Z,20.58
2022-09-02T10:34:58.852Z,20.57
2022-09-02T10:35:48.839Z,20.57
2022-09-02T10:36:38.820Z,20.57
2022-09-02T10:37:28.872Z,20.57
2022-09-02T10:38:18.826Z,20.57
2022-09-02T10:39:08.816Z,20.54
2022-09-02T10:39:58.787Z,20.54
2022-09-02T10:40:48.888Z,20.57
2022-09-02T10:41:38.801Z,20.63
2022-09-02T10:42:28.789Z,20.68
2022-09-02T10:43:18.786Z,20.71
2022-09-02T10:44:08.765Z,20.73
2022-09-02T10:44:59.176Z,20.79
2022-09-02T10:45:48.730Z,20.87
2022-09-02T10:46:38.720Z,20.96
2022-09-02T10:47:30.753Z,21.01
2022-09-02T10:48:18.700Z,21.03